createdAt,value
2019-04-28T00:01:01.135Z,1.17
2019-04-28T00:03:31.839Z,1.10
2019-04-28T00:06:01.164Z,1.00
2019-04-28T00:08:31.884Z,1.30
2019-04-28T00:11:01.761Z,0.87
2019-04-28T00:13:32.086Z,1.50
2019-04-28T00:16:01.594Z,1.47
2019-04-28T00:18:31.667Z,1.30
2019-04-28T00:21:11.004Z,1.33
2019-04-28T00:23:58.953Z,1.20
2019-04-28T00:26:45.208Z,1.20
2019-04-28T00:29:14.064Z,1.10
2019-04-28T00:31:42.749Z,1.10
2019-04-28T00:34:11.668Z,1.30
2019-04-28T00:36:41.237Z,1.00
2019-04-28T00:39:11.197Z,0.73
2019-04-28T00:41:41.883Z,1.00
2019-04-28T00:44:11.959Z,1.10
2019-04-28T00:46:41.725Z,1.23
2019-04-28T00:49:11.829Z,1.30
2019-04-28T00:51:41.483Z,1.20
2019-04-28T00:54:12.082Z,1.30
2019-04-28T00:56:41.789Z,1.40
2019-04-28T00:59:11.759Z,1.47
2019-04-28T01:01:57.121Z,1.30
2019-04-28T01:04:25.867Z,1.57
2019-04-28T01:06:54.983Z,1.33
2019-04-28T01:09:23.867Z,1.30
2019-04-28T01:11:53.460Z,1.10
2019-04-28T01:14:22.510Z,1.20
2019-04-28T01:17:03.655Z,1.03
2019-04-28T01:19:34.964Z,1.13
2019-04-28T01:22:15.289Z,0.90
2019-04-28T01:24:44.069Z,1.00
2019-04-28T01:27:50.618Z,0.80
2019-04-28T01:30:40.283Z,1.00
2019-04-28T01:33:30.893Z,1.17
2019-04-28T01:36:00.537Z,0.90
2019-04-28T01:38:30.273Z,0.90
2019-04-28T01:40:59.770Z,1.10
2019-04-28T01:43:31.221Z,1.10
2019-04-28T01:46:00.217Z,1.20
2019-04-28T01:48:29.855Z,0.90
2019-04-28T01:50:59.879Z,1.20
2019-04-28T01:53:30.683Z,1.13
2019-04-28T01:55:59.595Z,1.10
2019-04-28T01:58:29.693Z,1.10
2019-04-28T02:00:59.531Z,0.90
2019-04-28T02:03:30.565Z,1.47
2019-04-28T02:06:00.170Z,1.10
2019-04-28T02:08:30.238Z,1.20
2019-04-28T02:11:00.139Z,0.97
2019-04-28T02:13:29.875Z,1.00
2019-04-28T02:16:00.091Z,1.03
2019-04-28T02:18:29.901Z,1.37
2019-04-28T02:21:27.018Z,1.00
2019-04-28T02:24:15.203Z,1.23
2019-04-28T02:26:43.902Z,1.10
2019-04-28T02:29:12.740Z,1.40
2019-04-28T02:31:41.928Z,1.17
2019-04-28T02:34:11.263Z,1.20
2019-04-28T02:36:40.824Z,1.27
2019-04-28T02:39:10.663Z,1.10
2019-04-28T02:41:41.100Z,1.10
2019-04-28T02:44:10.456Z,1.00
2019-04-28T02:46:40.742Z,1.00
2019-04-28T02:49:12.518Z,1.20
2019-04-28T02:51:50.540Z,1.30
2019-04-28T02:54:20.375Z,0.80
2019-04-28T02:56:51.027Z,0.90
2019-04-28T02:59:21.025Z,1.10
2019-04-28T03:01:50.897Z,1.00
2019-04-28T03:04:20.300Z,1.00
2019-04-28T03:06:51.634Z,1.33
2019-04-28T03:09:20.378Z,0.93
2019-04-28T03:11:51.203Z,0.90
2019-04-28T03:14:20.896Z,1.03
2019-04-28T03:16:51.081Z,1.30
2019-04-28T03:19:21.137Z,1.27
2019-04-28T03:21:50.985Z,1.27
2019-04-28T03:24:21.345Z,1.10
2019-04-28T03:27:00.541Z,0.97
2019-04-28T03:29:46.511Z,0.83
2019-04-28T03:32:43.869Z,1.10
2019-04-28T03:35:02.858Z,0.80
2019-04-28T03:37:31.560Z,1.00
2019-04-28T03:40:00.772Z,0.70
2019-04-28T03:42:31.428Z,0.80
2019-04-28T03:45:01.568Z,1.10
2019-04-28T03:47:31.289Z,0.80
2019-04-28T03:50:00.595Z,0.80
2019-04-28T03:52:31.592Z,0.97
2019-04-28T03:55:00.568Z,0.60
2019-04-28T03:57:31.341Z,0.90
2019-04-28T04:00:01.530Z,0.93
2019-04-28T04:02:31.104Z,1.00
2019-04-28T04:05:03.712Z,1.00
2019-04-28T04:07:31.267Z,1.00
2019-04-28T04:10:06.662Z,0.97
2019-04-28T04:12:53.242Z,1.23
2019-04-28T04:15:54.611Z,1.50
2019-04-28T04:18:40.707Z,1.00
2019-04-28T04:21:11.148Z,1.00
2019-04-28T04:23:41.154Z,1.20
2019-04-28T04:26:11.636Z,0.90
2019-04-28T04:28:41.583Z,0.93
2019-04-28T04:31:11.352Z,0.80
2019-04-28T04:33:41.107Z,0.73
2019-04-28T04:36:11.618Z,0.67
2019-04-28T04:38:45.818Z,0.90
2019-04-28T04:41:11.452Z,0.87
2019-04-28T04:43:41.571Z,0.70
2019-04-28T04:46:31.147Z,1.07
2019-04-28T04:49:00.668Z,1.10
2019-04-28T04:51:30.801Z,1.00
2019-04-28T04:54:01.202Z,1.00
2019-04-28T04:56:30.427Z,1.30
2019-04-28T04:59:02.243Z,1.00
2019-04-28T05:01:50.224Z,1.13
2019-04-28T05:04:40.976Z,1.00
2019-04-28T05:07:10.835Z,1.00
2019-04-28T05:09:39.722Z,1.23
2019-04-28T05:12:09.671Z,0.90
2019-04-28T05:14:39.519Z,1.13
2019-04-28T05:17:10.303Z,1.30
2019-04-28T05:19:40.169Z,1.13
2019-04-28T05:22:10.212Z,1.00
2019-04-28T05:24:51.141Z,0.90
2019-04-28T05:27:24.014Z,0.80
2019-04-28T05:29:51.147Z,1.13
2019-04-28T05:32:20.519Z,0.70
2019-04-28T05:34:52.656Z,0.90
2019-04-28T05:37:21.238Z,0.70
2019-04-28T05:39:52.472Z,0.67
2019-04-28T05:42:20.537Z,0.70
2019-04-28T05:44:49.699Z,0.70
2019-04-28T05:47:20.309Z,0.70
2019-04-28T05:50:17.224Z,0.70
2019-04-28T05:53:04.914Z,0.90
2019-04-28T05:55:44.221Z,0.70
2019-04-28T05:58:47.466Z,0.87
2019-04-28T06:01:37.240Z,0.80
2019-04-28T06:04:12.850Z,1.00
2019-04-28T06:06:56.849Z,1.00
2019-04-28T06:09:51.033Z,1.00
2019-04-28T06:12:23.695Z,1.00
2019-04-28T06:14:57.313Z,1.00
2019-04-28T06:17:34.619Z,1.30
2019-04-28T06:20:05.111Z,1.27
2019-04-28T06:22:49.685Z,1.30
2019-04-28T06:28:16.545Z,2.00
2019-04-28T06:30:50.007Z,1.43
2019-04-28T06:33:18.832Z,1.40
2019-04-28T06:35:47.857Z,1.40
2019-04-28T06:38:16.725Z,1.50
2019-04-28T06:40:46.015Z,1.33
2019-04-28T06:43:15.091Z,1.50
2019-04-28T06:45:44.019Z,1.50
2019-04-28T06:48:12.781Z,1.30
2019-04-28T06:50:41.531Z,1.23
2019-04-28T06:53:10.561Z,1.00
2019-04-28T06:55:39.828Z,1.10
2019-04-28T06:58:08.752Z,1.10
2019-04-28T07:00:37.531Z,0.90
2019-04-28T07:03:09.203Z,0.80
2019-04-28T07:05:37.140Z,0.77
2019-04-28T07:08:05.980Z,1.00
2019-04-28T07:10:34.705Z,0.73
2019-04-28T07:13:03.528Z,0.90
2019-04-28T07:15:32.709Z,0.90
2019-04-28T07:18:01.348Z,0.90
2019-04-28T07:20:37.037Z,0.70
2019-04-28T07:23:05.917Z,0.97
2019-04-28T07:25:34.720Z,0.80
2019-04-28T07:28:03.512Z,0.80
2019-04-28T07:30:32.634Z,0.80
2019-04-28T07:33:07.853Z,0.97
2019-04-28T07:35:37.577Z,0.93
2019-04-28T07:38:16.605Z,0.80
2019-04-28T07:40:49.182Z,0.80
2019-04-28T07:43:21.707Z,0.90
2019-04-28T07:45:54.642Z,1.00
2019-04-28T07:48:26.855Z,0.93
2019-04-28T07:51:11.517Z,1.00
2019-04-28T07:53:50.641Z,1.00
2019-04-28T07:56:19.936Z,1.10
2019-04-28T07:58:48.779Z,1.10
2019-04-28T08:01:18.041Z,1.20
2019-04-28T08:03:49.508Z,1.30
2019-04-28T08:06:18.475Z,1.40
2019-04-28T08:08:47.362Z,1.37
2019-04-28T08:11:18.156Z,1.30
2019-04-28T08:13:47.087Z,1.00
2019-04-28T08:16:18.903Z,1.00
2019-04-28T08:18:47.944Z,1.27
2019-04-28T08:21:16.828Z,1.20
2019-04-28T08:23:47.257Z,1.20
2019-04-28T08:26:16.348Z,1.17
2019-04-28T08:28:45.186Z,1.33
2019-04-28T08:31:15.854Z,1.50
2019-04-28T08:34:05.396Z,1.47
2019-04-28T08:36:34.600Z,1.10
2019-04-28T08:39:05.842Z,1.10
2019-04-28T08:41:34.944Z,1.20
2019-04-28T08:44:10.782Z,0.90
2019-04-28T08:46:39.630Z,0.93
2019-04-28T08:49:08.465Z,1.10
2019-04-28T08:51:37.202Z,1.10
2019-04-28T08:54:05.978Z,1.10
2019-04-28T08:56:34.728Z,0.90
2019-04-28T08:59:04.964Z,1.10
2019-04-28T09:01:34.110Z,0.80
2019-04-28T09:04:14.827Z,1.20
2019-04-28T09:06:33.314Z,1.30
2019-04-28T09:09:02.180Z,1.10
2019-04-28T09:11:31.686Z,1.10
2019-04-28T09:14:00.546Z,1.00
2019-04-28T09:16:29.486Z,1.00
2019-04-28T09:18:58.238Z,1.00
2019-04-28T09:21:26.858Z,1.10
2019-04-28T09:23:55.697Z,1.07
2019-04-28T09:26:24.934Z,1.00
2019-04-28T09:28:53.695Z,1.13
2019-04-28T09:31:22.376Z,0.90
2019-04-28T09:33:51.112Z,0.87
2019-04-28T09:36:19.852Z,0.90
2019-04-28T09:38:48.542Z,0.80
2019-04-28T09:41:17.213Z,0.83
2019-04-28T09:44:10.508Z,0.70
2019-04-28T09:46:40.850Z,0.77
2019-04-28T09:49:09.452Z,0.80
2019-04-28T09:51:38.459Z,0.90
2019-04-28T09:54:07.095Z,0.80
2019-04-28T09:56:35.879Z,0.90
2019-04-28T09:59:04.648Z,1.00
2019-04-28T10:01:33.266Z,0.90
2019-04-28T10:04:01.889Z,0.90
2019-04-28T10:06:30.989Z,1.17
2019-04-28T10:08:59.580Z,0.90
2019-04-28T10:11:30.679Z,1.10
2019-04-28T10:13:58.845Z,1.20
2019-04-28T10:16:27.736Z,1.20
2019-04-28T10:18:56.671Z,1.30
2019-04-28T10:21:25.567Z,1.13
2019-04-28T10:23:54.753Z,1.50
2019-04-28T10:26:23.669Z,1.67
2019-04-28T10:28:52.541Z,1.40
2019-04-28T10:31:21.366Z,1.33
2019-04-28T10:33:54.428Z,1.20
2019-04-28T10:36:23.878Z,1.20
2019-04-28T10:38:54.742Z,1.60
2019-04-28T10:41:35.123Z,1.40
2019-04-28T10:44:04.010Z,1.10
2019-04-28T10:46:32.872Z,1.37
2019-04-28T10:49:01.734Z,1.40
2019-04-28T10:51:30.768Z,1.60
2019-04-28T10:53:59.977Z,1.30
2019-04-28T10:56:28.992Z,1.83
2019-04-28T10:58:58.112Z,2.03
2019-04-28T11:01:26.816Z,1.27
2019-04-28T11:03:59.091Z,1.23
2019-04-28T11:06:27.794Z,1.10
2019-04-28T11:09:15.348Z,1.30
2019-04-28T11:11:43.971Z,1.30
2019-04-28T11:14:14.323Z,1.43
2019-04-28T11:16:43.151Z,1.60
2019-04-28T11:19:11.807Z,0.90
2019-04-28T11:21:40.558Z,1.23
2019-04-28T11:24:09.206Z,1.30
2019-04-28T11:26:38.180Z,1.07
2019-04-28T11:29:08.410Z,1.00
2019-04-28T11:31:37.059Z,1.00
2019-04-28T11:34:17.355Z,1.30
2019-04-28T11:36:46.068Z,1.20
2019-04-28T11:39:18.142Z,1.20
2019-04-28T11:41:46.976Z,1.30
2019-04-28T11:44:15.631Z,0.83
2019-04-28T11:46:44.420Z,1.20
2019-04-28T11:49:13.043Z,1.20
2019-04-28T11:51:42.024Z,1.00
2019-04-28T11:54:10.607Z,1.30
2019-04-28T11:56:41.563Z,1.10
2019-04-28T11:59:09.669Z,1.40
2019-04-28T12:01:38.266Z,1.63
2019-04-28T12:04:08.981Z,1.40
2019-04-28T12:06:37.611Z,0.90
2019-04-28T12:09:31.074Z,1.10
2019-04-28T12:12:00.320Z,1.27
2019-04-28T12:14:50.284Z,0.97
2019-04-28T12:17:45.255Z,1.10
2019-04-28T12:20:19.515Z,1.20
2019-04-28T12:22:48.104Z,0.97
2019-04-28T12:25:16.849Z,1.50
2019-04-28T12:27:45.477Z,1.10
2019-04-28T12:30:14.523Z,0.87
2019-04-28T12:32:43.201Z,1.10
2019-04-28T12:35:11.890Z,1.10
2019-04-28T12:37:44.893Z,1.00
2019-04-28T12:40:13.849Z,1.00
2019-04-28T12:42:43.763Z,1.10
2019-04-28T12:45:14.734Z,0.83
2019-04-28T12:47:50.101Z,0.90
2019-04-28T12:50:36.477Z,0.70
2019-04-28T12:53:11.497Z,0.90
2019-04-28T12:55:46.560Z,1.00
2019-04-28T12:58:16.223Z,0.90
2019-04-28T13:00:59.091Z,1.03
2019-04-28T13:03:41.226Z,0.77
2019-04-28T13:06:12.294Z,1.00
2019-04-28T13:08:41.093Z,1.00
2019-04-28T13:11:13.035Z,1.10
2019-04-28T13:13:42.449Z,0.93
2019-04-28T13:16:11.323Z,0.80
2019-04-28T13:18:40.216Z,0.60
2019-04-28T13:21:09.086Z,0.80
2019-04-28T13:23:37.893Z,0.90
2019-04-28T13:26:06.633Z,0.90
2019-04-28T13:28:35.322Z,0.90
2019-04-28T13:31:04.122Z,0.80
2019-04-28T13:33:33.183Z,0.80
2019-04-28T13:36:14.477Z,0.87
2019-04-28T13:38:35.842Z,0.90
2019-04-28T13:41:04.990Z,0.80
2019-04-28T13:43:34.284Z,0.70
2019-04-28T13:46:03.208Z,0.70
2019-04-28T13:48:32.130Z,0.63
2019-04-28T13:51:01.071Z,0.90
2019-04-28T13:53:29.963Z,0.70
2019-04-28T13:56:03.261Z,0.77
2019-04-28T13:58:34.286Z,0.70
2019-04-28T14:01:13.727Z,0.90
2019-04-28T14:04:04.336Z,1.03
2019-04-28T14:06:35.048Z,0.80
2019-04-28T14:09:05.270Z,1.10
2019-04-28T14:11:34.052Z,0.63
2019-04-28T14:14:02.850Z,0.70
2019-04-28T14:16:31.539Z,0.73
2019-04-28T14:19:00.330Z,0.80
2019-04-28T14:21:29.216Z,0.70
2019-04-28T14:23:58.140Z,0.80
2019-04-28T14:26:27.051Z,0.90
2019-04-28T14:28:55.786Z,0.70
2019-04-28T14:31:24.596Z,0.53
2019-04-28T14:33:53.221Z,0.70
2019-04-28T14:36:21.954Z,0.77
2019-04-28T14:38:50.645Z,0.70
2019-04-28T14:41:19.256Z,0.80
2019-04-28T14:43:47.891Z,0.70
2019-04-28T14:46:16.528Z,0.63
2019-04-28T14:48:45.322Z,0.60
2019-04-28T14:51:14.182Z,0.80
2019-04-28T14:53:43.063Z,0.70
2019-04-28T14:56:11.893Z,0.80
2019-04-28T14:58:40.934Z,0.80
2019-04-28T15:01:24.726Z,0.70
2019-04-28T15:03:55.198Z,0.70
2019-04-28T15:06:38.400Z,0.83
2019-04-28T15:09:33.053Z,1.00
2019-04-28T15:12:04.144Z,1.20
2019-04-28T15:14:32.776Z,1.10
2019-04-28T15:17:01.386Z,0.90
2019-04-28T15:19:30.058Z,0.90
2019-04-28T15:21:58.626Z,0.90
2019-04-28T15:24:27.231Z,1.20
2019-04-28T15:26:55.836Z,1.00
2019-04-28T15:29:24.433Z,0.70
2019-04-28T15:31:53.060Z,1.07
2019-04-28T15:34:21.680Z,0.93
2019-04-28T15:36:50.278Z,0.87
2019-04-28T15:39:19.074Z,1.20
2019-04-28T15:41:47.706Z,1.13
2019-04-28T15:44:16.453Z,0.80
2019-04-28T15:46:45.089Z,0.90
2019-04-28T15:49:13.709Z,1.10
2019-04-28T15:51:42.304Z,0.87
2019-04-28T15:54:10.928Z,0.80
2019-04-28T15:56:49.827Z,0.60
2019-04-28T15:59:19.752Z,0.80
2019-04-28T16:01:48.660Z,0.80
2019-04-28T16:04:18.366Z,0.83
2019-04-28T16:06:47.490Z,0.70
2019-04-28T16:09:16.460Z,0.80
2019-04-28T16:11:45.047Z,0.63
2019-04-28T16:14:13.672Z,0.63
2019-04-28T16:16:42.279Z,0.70
2019-04-28T16:19:10.918Z,1.03
2019-04-28T16:21:39.595Z,0.60
2019-04-28T16:24:08.273Z,0.63
2019-04-28T16:26:36.859Z,0.80
2019-04-28T16:29:05.911Z,1.00
2019-04-28T16:31:34.619Z,0.80
2019-04-28T16:34:03.218Z,0.70
2019-04-28T16:36:32.144Z,0.70
2019-04-28T16:39:00.789Z,0.60
2019-04-28T16:41:34.431Z,0.80
2019-04-28T16:44:15.291Z,0.80
2019-04-28T16:46:43.887Z,0.80
2019-04-28T16:49:12.465Z,0.87
2019-04-28T16:51:41.103Z,0.80
2019-04-28T16:54:09.688Z,0.80
2019-04-28T16:56:59.365Z,1.17
2019-04-28T16:59:43.919Z,0.80
2019-04-28T17:02:21.064Z,0.80
2019-04-28T17:04:49.783Z,1.00
2019-04-28T17:07:18.389Z,0.90
2019-04-28T17:09:47.009Z,1.20
2019-04-28T17:12:15.734Z,0.80
2019-04-28T17:14:44.313Z,0.90
2019-04-28T17:17:12.898Z,0.97
2019-04-28T17:19:41.573Z,1.30
2019-04-28T17:22:10.163Z,0.77
2019-04-28T17:24:39.071Z,0.80
2019-04-28T17:27:07.677Z,0.60
2019-04-28T17:29:37.975Z,0.40
2019-04-28T17:32:06.837Z,0.60
2019-04-28T17:34:35.411Z,0.53
2019-04-28T17:37:05.444Z,0.87
2019-04-28T17:39:34.721Z,0.70
2019-04-28T17:42:04.387Z,0.70
2019-04-28T17:44:33.051Z,1.00
2019-04-28T17:47:01.643Z,1.10
2019-04-28T17:49:36.937Z,1.33
2019-04-28T17:52:06.183Z,1.00
2019-04-28T17:54:35.107Z,1.13
2019-04-28T17:57:04.795Z,1.10
2019-04-28T17:59:33.569Z,0.90
2019-04-28T18:02:21.221Z,1.20
2019-04-28T18:05:07.839Z,1.00
2019-04-28T18:07:37.585Z,1.10
2019-04-28T18:10:08.239Z,1.00
2019-04-28T18:12:36.807Z,0.90
2019-04-28T18:15:23.563Z,1.00
2019-04-28T18:18:05.879Z,1.00
2019-04-28T18:20:34.528Z,0.93
2019-04-28T18:23:03.210Z,0.97
2019-04-28T18:25:31.823Z,1.20
2019-04-28T18:28:00.687Z,0.80
2019-04-28T18:30:31.929Z,0.80
2019-04-28T18:33:18.331Z,0.70
2019-04-28T18:35:52.919Z,1.00
2019-04-28T18:38:40.121Z,1.00
2019-04-28T18:41:26.633Z,0.90
2019-04-28T18:44:12.290Z,0.90
2019-04-28T18:46:40.979Z,1.03
2019-04-28T18:49:09.643Z,0.90
2019-04-28T18:51:38.263Z,1.00
2019-04-28T18:54:07.040Z,1.00
2019-04-28T18:56:35.753Z,1.03
2019-04-28T18:59:04.515Z,1.20
2019-04-28T19:01:51.430Z,1.23
2019-04-28T19:04:20.052Z,1.10
2019-04-28T19:06:48.646Z,0.93
2019-04-28T19:09:33.184Z,1.00
2019-04-28T19:12:11.576Z,1.00
2019-04-28T19:14:44.344Z,1.00
2019-04-28T19:17:20.791Z,0.80
2019-04-28T19:19:49.437Z,0.90
2019-04-28T19:22:18.032Z,1.10
2019-04-28T19:24:46.656Z,1.20
2019-04-28T19:27:15.264Z,1.00
2019-04-28T19:29:43.875Z,1.13
2019-04-28T19:32:12.452Z,0.90
2019-04-28T19:34:41.124Z,0.90
2019-04-28T19:37:09.772Z,0.80
2019-04-28T19:39:40.794Z,0.90
2019-04-28T19:42:08.688Z,0.80
2019-04-28T19:44:37.333Z,1.00
2019-04-28T19:47:05.984Z,0.93
2019-04-28T19:49:34.660Z,1.17
2019-04-28T19:52:03.248Z,1.00
2019-04-28T19:54:35.450Z,0.90
2019-04-28T19:57:21.540Z,1.10
2019-04-28T20:00:14.420Z,1.00
2019-04-28T20:02:43.097Z,1.00
2019-04-28T20:05:11.698Z,1.07
2019-04-28T20:07:40.992Z,1.17
2019-04-28T20:10:10.100Z,1.00
2019-04-28T20:12:38.738Z,1.30
2019-04-28T20:15:08.035Z,1.10
2019-04-28T20:17:36.766Z,1.10
2019-04-28T20:20:05.586Z,1.27
2019-04-28T20:22:34.182Z,1.27
2019-04-28T20:25:02.864Z,1.00
2019-04-28T20:27:31.447Z,1.30
2019-04-28T20:30:00.044Z,1.30
2019-04-28T20:32:30.232Z,1.20
2019-04-28T20:34:58.887Z,1.00
2019-04-28T20:37:40.258Z,1.07
2019-04-28T20:40:13.573Z,1.00
2019-04-28T20:42:48.215Z,1.13
2019-04-28T20:45:17.339Z,1.30
2019-04-28T20:47:45.952Z,1.27
2019-04-28T20:50:14.583Z,1.10
2019-04-28T20:52:43.179Z,1.20
2019-04-28T20:55:11.798Z,1.30
2019-04-28T20:57:40.417Z,1.20
2019-04-28T21:00:09.002Z,1.00
2019-04-28T21:02:37.767Z,1.00
2019-04-28T21:05:06.365Z,1.10
2019-04-28T21:07:35.284Z,1.30
2019-04-28T21:10:04.152Z,1.00
2019-04-28T21:12:32.905Z,0.90
2019-04-28T21:15:01.526Z,1.27
2019-04-28T21:17:30.179Z,0.97
2019-04-28T21:19:58.786Z,1.30
2019-04-28T21:22:27.635Z,1.07
2019-04-28T21:24:56.211Z,1.30
2019-04-28T21:27:25.119Z,1.30
2019-04-28T21:29:53.723Z,1.10
2019-04-28T21:32:22.648Z,1.20
2019-04-28T21:34:51.257Z,1.60
2019-04-28T21:37:20.240Z,1.47
2019-04-28T21:39:48.863Z,1.43
2019-04-28T21:42:22.032Z,1.43
2019-04-28T21:45:02.298Z,1.70
2019-04-28T21:47:32.830Z,1.37
2019-04-28T21:50:01.440Z,2.00
2019-04-28T21:52:30.148Z,1.80
2019-04-28T21:54:58.731Z,2.00
2019-04-28T21:57:27.395Z,1.80
2019-04-28T21:59:56.290Z,1.80
2019-04-28T22:02:25.075Z,2.60
2019-04-28T22:04:53.915Z,2.40
2019-04-28T22:07:22.645Z,2.97
2019-04-28T22:09:51.348Z,2.90
2019-04-28T22:12:20.221Z,2.73
2019-04-28T22:14:49.482Z,3.00
2019-04-28T22:17:18.773Z,2.83
2019-04-28T22:19:47.635Z,3.10
2019-04-28T22:22:16.449Z,2.87
2019-04-28T22:25:19.257Z,2.47
2019-04-28T22:27:48.281Z,2.50
2019-04-28T22:30:17.226Z,2.27
2019-04-28T22:32:45.951Z,2.37
2019-04-28T22:35:15.209Z,2.10
2019-04-28T22:37:43.991Z,2.40
2019-04-28T22:40:13.035Z,2.17
2019-04-28T22:42:42.080Z,2.00
2019-04-28T22:45:12.255Z,2.30
2019-04-28T22:47:41.097Z,2.40
2019-04-28T22:50:14.337Z,2.43
2019-04-28T22:52:43.115Z,2.37
2019-04-28T22:55:17.695Z,2.70
2019-04-28T22:58:02.815Z,2.40
2019-04-28T23:00:56.181Z,2.20
2019-04-28T23:03:42.367Z,2.20
2019-04-28T23:06:11.261Z,2.33
2019-04-28T23:08:40.256Z,2.13
2019-04-28T23:11:09.201Z,2.13
2019-04-28T23:13:38.243Z,2.70
2019-04-28T23:16:07.198Z,2.60
2019-04-28T23:18:36.228Z,2.00
2019-04-28T23:21:11.469Z,2.63
2019-04-28T23:23:40.615Z,1.90
2019-04-28T23:26:09.460Z,2.17
2019-04-28T23:28:38.396Z,2.07
2019-04-28T23:31:07.391Z,2.30
2019-04-28T23:33:36.332Z,2.20
2019-04-28T23:36:05.221Z,2.30
2019-04-28T23:38:34.160Z,2.40
2019-04-28T23:41:19.957Z,2.27
2019-04-28T23:43:49.259Z,1.93
2019-04-28T23:46:18.198Z,2.10
2019-04-28T23:48:47.387Z,1.90
2019-04-28T23:51:39.064Z,2.23
2019-04-28T23:54:08.309Z,1.90
2019-04-28T23:56:37.409Z,1.93
2019-04-28T23:59:06.251Z,1.77
